createdAt,value
2022-08-26T00:01:53.742Z,21.00
2022-08-26T00:04:23.400Z,20.64
2022-08-26T00:06:51.041Z,19.95
2022-08-26T00:09:18.619Z,20.46
2022-08-26T00:11:47.184Z,20.62
2022-08-26T00:14:16.138Z,20.56
2022-08-26T00:16:47.555Z,20.58
2022-08-26T00:19:17.832Z,20.45
2022-08-26T00:21:45.808Z,20.50
2022-08-26T00:24:13.546Z,20.72
2022-08-26T00:26:41.816Z,20.76
2022-08-26T00:29:10.756Z,20.18
2022-08-26T00:31:38.650Z,20.38
2022-08-26T00:34:11.212Z,20.54
2022-08-26T00:36:40.752Z,20.60
2022-08-26T00:39:08.810Z,20.49
2022-08-26T00:41:36.945Z,20.51
2022-08-26T00:44:05.533Z,20.54
2022-08-26T00:46:36.701Z,20.57
2022-08-26T00:49:11.617Z,20.57
2022-08-26T00:51:46.794Z,20.29
2022-08-26T00:54:15.701Z,20.40
2022-08-26T00:56:49.441Z,20.55
2022-08-26T00:59:18.391Z,20.57
2022-08-26T01:01:46.300Z,20.45
2022-08-26T01:04:21.847Z,20.51
2022-08-26T01:06:51.044Z,20.47
2022-08-26T01:09:20.243Z,20.30
2022-08-26T01:11:50.511Z,20.45
2022-08-26T01:14:20.130Z,20.44
2022-08-26T01:16:48.780Z,20.28
2022-08-26T01:19:22.553Z,20.29
2022-08-26T01:21:56.481Z,20.29
2022-08-26T01:24:28.493Z,20.26
2022-08-26T01:26:58.717Z,20.22
2022-08-26T01:29:27.237Z,20.23
2022-08-26T01:31:57.278Z,20.18
2022-08-26T01:34:28.601Z,20.34
2022-08-26T01:37:06.937Z,20.24
2022-08-26T01:39:37.844Z,20.36
2022-08-26T01:42:10.368Z,20.36
2022-08-26T01:44:44.886Z,19.93
2022-08-26T01:47:14.384Z,19.63
2022-08-26T01:49:43.991Z,20.08
2022-08-26T01:52:16.668Z,20.24
2022-08-26T01:54:46.310Z,20.31
2022-08-26T01:57:19.406Z,20.43
2022-08-26T01:59:47.858Z,20.23
2022-08-26T02:02:15.910Z,20.27
2022-08-26T02:04:48.573Z,20.31
2022-08-26T02:07:20.397Z,20.27
2022-08-26T02:09:50.477Z,20.15
2022-08-26T02:12:20.564Z,20.16
2022-08-26T02:14:53.183Z,20.20
2022-08-26T02:17:25.531Z,20.14
2022-08-26T02:19:53.821Z,20.17
2022-08-26T02:22:24.658Z,20.01
2022-08-26T02:24:56.830Z,20.00
2022-08-26T02:27:32.469Z,20.10
2022-08-26T02:30:03.933Z,20.19
2022-08-26T02:32:32.836Z,20.25
2022-08-26T02:35:00.501Z,20.26
2022-08-26T02:37:30.159Z,20.18
2022-08-26T02:39:59.341Z,20.11
2022-08-26T02:42:26.887Z,20.07
2022-08-26T02:44:54.446Z,20.16
2022-08-26T02:47:24.763Z,20.21
2022-08-26T02:49:53.132Z,20.21
2022-08-26T02:52:21.611Z,20.28
2022-08-26T02:54:49.596Z,20.08
2022-08-26T02:57:19.487Z,20.24
2022-08-26T02:59:49.949Z,20.14
2022-08-26T03:02:17.608Z,19.97
2022-08-26T03:04:57.309Z,19.92
2022-08-26T03:07:25.777Z,19.67
2022-08-26T03:09:53.519Z,19.74
2022-08-26T03:12:22.409Z,19.93
2022-08-26T03:14:49.931Z,19.96
2022-08-26T03:17:17.522Z,20.05
2022-08-26T03:19:45.075Z,20.20
2022-08-26T03:22:14.645Z,20.13
2022-08-26T03:24:46.119Z,20.01
2022-08-26T03:27:14.470Z,20.02
2022-08-26T03:30:01.104Z,20.01
2022-08-26T03:32:28.901Z,19.89
2022-08-26T03:34:57.505Z,20.05
2022-08-26T03:37:25.845Z,20.13
2022-08-26T03:39:53.563Z,19.95
2022-08-26T03:42:22.075Z,19.98
2022-08-26T03:44:51.481Z,20.04
2022-08-26T03:47:19.043Z,20.07
2022-08-26T03:49:46.578Z,20.15
2022-08-26T03:52:14.064Z,20.19
2022-08-26T03:54:41.908Z,20.24
2022-08-26T03:57:11.054Z,20.15
2022-08-26T03:59:38.569Z,20.04
2022-08-26T04:02:11.589Z,20.05
2022-08-26T04:04:39.757Z,20.16
2022-08-26T04:07:07.747Z,20.24
2022-08-26T04:09:35.649Z,20.23
2022-08-26T04:12:03.915Z,20.18
2022-08-26T04:14:32.721Z,20.05
2022-08-26T04:17:00.321Z,20.27
2022-08-26T04:19:29.201Z,20.14
2022-08-26T04:21:56.791Z,20.14
2022-08-26T04:24:27.863Z,20.22
2022-08-26T04:26:56.458Z,20.35
2022-08-26T04:29:27.494Z,20.42
2022-08-26T04:31:56.439Z,20.46
2022-08-26T04:34:25.298Z,20.36
2022-08-26T04:36:57.777Z,20.47
2022-08-26T04:39:25.474Z,20.69
2022-08-26T04:41:55.567Z,20.81
2022-08-26T04:44:27.786Z,20.98
2022-08-26T04:46:55.834Z,21.03
2022-08-26T04:49:23.668Z,21.11
2022-08-26T04:51:54.717Z,21.18
2022-08-26T04:54:23.823Z,21.21
2022-08-26T04:56:53.091Z,21.51
2022-08-26T04:59:20.607Z,21.63
2022-08-26T05:01:52.494Z,21.77
2022-08-26T05:04:21.967Z,21.96
2022-08-26T05:06:50.670Z,22.04
2022-08-26T05:09:19.841Z,21.88
2022-08-26T05:11:52.143Z,21.69
2022-08-26T05:14:20.541Z,21.53
2022-08-26T05:16:48.148Z,21.46
2022-08-26T05:19:19.130Z,21.60
2022-08-26T05:21:47.695Z,21.77
2022-08-26T05:24:15.359Z,21.95
2022-08-26T05:26:44.594Z,22.09
2022-08-26T05:29:14.035Z,22.25
2022-08-26T05:31:42.981Z,22.51
2022-08-26T05:34:10.562Z,22.76
2022-08-26T05:36:38.811Z,22.85
2022-08-26T05:39:07.722Z,22.98
2022-08-26T05:41:41.015Z,23.22
2022-08-26T05:44:11.374Z,23.53
2022-08-26T05:46:41.590Z,23.82
2022-08-26T05:49:12.435Z,24.03
2022-08-26T05:51:41.796Z,24.19
2022-08-26T05:54:10.427Z,24.35
2022-08-26T05:56:38.614Z,24.57
2022-08-26T05:59:14.097Z,24.80
2022-08-26T06:01:45.092Z,24.99
2022-08-26T06:04:13.057Z,25.14
2022-08-26T06:06:41.443Z,25.19
2022-08-26T06:09:10.907Z,25.40
2022-08-26T06:11:39.649Z,25.63
2022-08-26T06:14:08.986Z,25.84
2022-08-26T06:16:40.866Z,26.05
2022-08-26T06:19:11.928Z,26.29
2022-08-26T06:21:42.199Z,26.66
2022-08-26T06:24:31.091Z,27.07
2022-08-26T06:27:02.142Z,27.59
2022-08-26T06:29:31.423Z,28.23
2022-08-26T06:31:59.353Z,28.87
2022-08-26T06:34:30.532Z,29.15
2022-08-26T06:37:02.128Z,29.12
2022-08-26T06:39:31.624Z,29.21
2022-08-26T06:42:00.169Z,29.41
2022-08-26T06:44:28.617Z,29.13
2022-08-26T06:46:56.412Z,28.85
2022-08-26T06:49:26.968Z,28.96
2022-08-26T06:51:58.444Z,29.12
2022-08-26T06:54:26.495Z,29.56
2022-08-26T06:56:55.845Z,29.82
2022-08-26T06:59:23.948Z,29.99
2022-08-26T07:01:52.240Z,30.01
2022-08-26T07:04:22.319Z,29.62
2022-08-26T07:06:53.365Z,29.67
2022-08-26T07:09:23.880Z,30.18
2022-08-26T07:11:52.236Z,30.59
2022-08-26T07:14:21.857Z,30.77
2022-08-26T07:16:49.685Z,30.71
2022-08-26T07:19:30.445Z,31.28
2022-08-26T07:21:59.361Z,31.89
2022-08-26T07:24:29.127Z,32.38
2022-08-26T07:27:00.021Z,32.68
2022-08-26T07:29:28.627Z,32.97
2022-08-26T07:31:56.427Z,33.27
2022-08-26T07:34:25.032Z,34.01
2022-08-26T07:36:53.710Z,34.68
2022-08-26T07:39:23.430Z,35.03
2022-08-26T07:41:53.941Z,35.22
2022-08-26T07:44:21.472Z,34.35
2022-08-26T07:46:52.336Z,33.61
2022-08-26T07:49:21.375Z,32.41
2022-08-26T07:51:49.757Z,33.21
2022-08-26T07:54:17.731Z,33.45
2022-08-26T07:56:46.408Z,33.86
2022-08-26T07:59:16.126Z,34.21
2022-08-26T08:01:45.102Z,34.67
2022-08-26T08:04:13.092Z,35.50
2022-08-26T08:06:41.552Z,36.97
2022-08-26T08:09:12.181Z,38.89
2022-08-26T08:11:40.471Z,40.75
2022-08-26T08:14:08.267Z,41.90
2022-08-26T08:16:41.510Z,43.28
2022-08-26T08:19:13.894Z,43.72
2022-08-26T08:21:42.893Z,43.98
2022-08-26T08:24:11.562Z,43.61
2022-08-26T08:26:39.553Z,42.64
2022-08-26T08:29:08.754Z,42.86
2022-08-26T08:31:56.724Z,42.35
2022-08-26T08:34:26.484Z,42.20
2022-08-26T08:36:54.502Z,41.79
2022-08-26T08:39:22.491Z,38.94
2022-08-26T08:42:04.213Z,34.72
2022-08-26T08:44:31.971Z,35.80
2022-08-26T08:47:07.052Z,32.30
2022-08-26T08:49:35.528Z,33.80
2022-08-26T08:52:07.817Z,33.54
2022-08-26T08:54:35.356Z,34.49
2022-08-26T08:57:08.593Z,34.14
2022-08-26T08:59:41.832Z,31.39
2022-08-26T09:02:20.598Z,31.35
2022-08-26T09:04:58.782Z,33.76
2022-08-26T09:07:33.242Z,34.94
2022-08-26T09:10:18.731Z,37.14
2022-08-26T09:12:48.789Z,39.08
2022-08-26T09:15:33.125Z,40.67
2022-08-26T09:18:11.060Z,41.58
2022-08-26T09:20:49.237Z,38.65
2022-08-26T09:23:18.214Z,38.02
2022-08-26T09:25:48.584Z,39.21
2022-08-26T09:28:18.634Z,39.49
2022-08-26T09:30:47.801Z,40.10
2022-08-26T09:33:19.239Z,40.48
2022-08-26T09:35:48.785Z,38.02
2022-08-26T09:38:28.864Z,36.22
2022-08-26T09:41:03.670Z,37.72
2022-08-26T09:43:32.950Z,39.10
2022-08-26T09:46:13.366Z,39.29
2022-08-26T09:48:43.479Z,39.59
2022-08-26T09:51:28.316Z,40.03
2022-08-26T09:53:58.645Z,36.24
2022-08-26T09:56:29.884Z,33.62
2022-08-26T09:58:58.508Z,33.70
2022-08-26T10:01:31.339Z,32.85
2022-08-26T10:04:11.114Z,31.63
2022-08-26T10:06:42.737Z,31.94
2022-08-26T10:09:14.764Z,30.56
2022-08-26T10:11:47.287Z,29.64
2022-08-26T10:14:20.365Z,29.55
2022-08-26T10:16:53.621Z,29.43
2022-08-26T10:19:41.674Z,28.74
2022-08-26T10:22:19.439Z,28.75
2022-08-26T10:24:54.956Z,28.16
2022-08-26T10:27:28.575Z,28.84
2022-08-26T10:30:05.004Z,29.71
2022-08-26T10:32:41.498Z,29.16
2022-08-26T10:35:14.412Z,29.44
2022-08-26T10:37:46.696Z,29.98
2022-08-26T10:40:24.012Z,30.75
2022-08-26T10:42:56.346Z,30.61
2022-08-26T10:45:27.467Z,29.46
2022-08-26T10:48:01.244Z,26.54
2022-08-26T10:50:33.675Z,24.70
2022-08-26T10:53:06.397Z,24.68
2022-08-26T10:55:44.143Z,24.80
2022-08-26T10:58:29.187Z,24.64
2022-08-26T11:01:31.539Z,24.12
2022-08-26T11:04:08.613Z,24.17
2022-08-26T11:06:37.709Z,23.83
2022-08-26T11:09:07.452Z,23.63
2022-08-26T11:12:02.905Z,23.39
2022-08-26T11:14:53.263Z,24.10
2022-08-26T11:17:56.879Z,24.59
2022-08-26T11:20:37.540Z,24.32
2022-08-26T11:23:38.964Z,23.60
2022-08-26T11:26:35.915Z,23.46
2022-08-26T11:29:04.729Z,23.55
2022-08-26T11:31:55.570Z,23.94
2022-08-26T11:34:55.008Z,23.95
2022-08-26T11:37:30.655Z,24.13
2022-08-26T11:40:02.935Z,23.90
2022-08-26T11:42:40.491Z,23.38
2022-08-26T11:45:19.278Z,23.19
2022-08-26T11:47:49.356Z,22.97
2022-08-26T11:50:21.432Z,22.83
2022-08-26T11:53:01.612Z,22.72
2022-08-26T11:55:30.235Z,22.57
2022-08-26T11:58:01.816Z,22.75
2022-08-26T12:00:38.411Z,23.29
2022-08-26T12:03:19.023Z,23.36
2022-08-26T12:05:49.110Z,23.43
2022-08-26T12:08:19.416Z,23.46
2022-08-26T12:10:48.202Z,23.65
2022-08-26T12:13:25.038Z,23.54
2022-08-26T12:15:56.328Z,23.63
2022-08-26T12:18:29.342Z,23.58
2022-08-26T12:21:00.910Z,23.65
2022-08-26T12:23:43.809Z,23.82
2022-08-26T12:26:19.275Z,23.99
2022-08-26T12:28:51.501Z,24.35
2022-08-26T12:31:27.496Z,24.50
2022-08-26T12:33:58.969Z,24.76
2022-08-26T12:36:31.332Z,25.00
2022-08-26T12:39:07.745Z,24.77
2022-08-26T12:41:50.424Z,24.46
2022-08-26T12:44:54.076Z,23.54
2022-08-26T12:47:42.365Z,22.76
2022-08-26T12:50:18.429Z,23.18
2022-08-26T12:52:57.200Z,23.69
2022-08-26T12:55:27.641Z,23.99
2022-08-26T12:58:10.627Z,23.77
2022-08-26T13:00:41.620Z,23.48
2022-08-26T13:03:38.347Z,23.36
2022-08-26T13:06:29.650Z,23.45
2022-08-26T13:08:59.468Z,23.54
2022-08-26T13:11:29.495Z,23.48
2022-08-26T13:13:59.440Z,23.60
2022-08-26T13:16:28.797Z,23.66
2022-08-26T13:18:59.720Z,23.83
2022-08-26T13:21:29.493Z,23.85
2022-08-26T13:24:05.916Z,23.18
2022-08-26T13:26:35.077Z,22.38
2022-08-26T13:29:05.308Z,22.14
2022-08-26T13:31:37.696Z,21.70
2022-08-26T13:34:05.380Z,21.93
2022-08-26T13:36:32.911Z,22.15
2022-08-26T13:39:00.675Z,22.92
2022-08-26T13:41:29.519Z,23.28
2022-08-26T13:43:58.841Z,23.42
2022-08-26T13:46:27.678Z,23.73
2022-08-26T13:48:56.911Z,23.90
2022-08-26T13:51:25.038Z,23.71
2022-08-26T13:53:53.351Z,23.56
2022-08-26T13:56:21.378Z,22.88
2022-08-26T13:58:49.472Z,22.57
2022-08-26T14:01:18.341Z,22.48
2022-08-26T14:03:46.979Z,22.48
2022-08-26T14:06:16.128Z,23.06
2022-08-26T14:08:44.018Z,23.62
2022-08-26T14:11:11.697Z,23.96
2022-08-26T14:13:39.380Z,24.20
2022-08-26T14:16:11.062Z,24.06
2022-08-26T14:18:47.325Z,23.50
2022-08-26T14:21:19.403Z,22.46
2022-08-26T14:23:47.037Z,22.17
2022-08-26T14:26:28.242Z,22.20
2022-08-26T14:28:56.888Z,23.11
2022-08-26T14:31:24.506Z,23.76
2022-08-26T14:33:52.141Z,23.39
2022-08-26T14:36:31.920Z,22.37
2022-08-26T14:39:01.891Z,22.34
2022-08-26T14:41:31.544Z,23.06
2022-08-26T14:44:02.941Z,23.87
2022-08-26T14:46:32.679Z,23.99
2022-08-26T14:49:05.212Z,23.21
2022-08-26T14:51:36.236Z,23.30
2022-08-26T14:54:11.678Z,23.99
2022-08-26T14:56:43.377Z,24.10
2022-08-26T14:59:11.426Z,24.28
2022-08-26T15:01:39.025Z,24.48
2022-08-26T15:04:06.673Z,24.58
2022-08-26T15:06:36.856Z,25.08
2022-08-26T15:09:05.655Z,25.35
2022-08-26T15:11:33.186Z,25.70
2022-08-26T15:14:00.859Z,26.28
2022-08-26T15:20:10.383Z,27.22
2022-08-26T15:22:42.326Z,27.53
2022-08-26T15:25:10.737Z,27.89
2022-08-26T15:27:38.494Z,27.67
2022-08-26T15:30:10.040Z,26.81
2022-08-26T15:32:37.595Z,26.54
2022-08-26T15:38:53.360Z,26.69
2022-08-26T15:41:21.590Z,27.15
2022-08-26T15:43:49.144Z,27.45
2022-08-26T15:46:16.681Z,26.85
2022-08-26T15:48:44.737Z,27.69
2022-08-26T15:51:23.718Z,28.05
2022-08-26T15:53:55.325Z,27.75
2022-08-26T15:56:25.821Z,28.16
2022-08-26T15:58:54.992Z,28.31
2022-08-26T16:01:27.382Z,28.05
2022-08-26T16:03:56.575Z,27.22
2022-08-26T16:06:27.327Z,26.07
2022-08-26T16:08:57.188Z,25.20
2022-08-26T16:11:24.916Z,25.20
2022-08-26T16:13:52.738Z,24.91
2022-08-26T16:16:21.433Z,24.95
2022-08-26T16:18:49.529Z,25.73
2022-08-26T16:21:19.313Z,26.28
2022-08-26T16:23:48.140Z,26.64
2022-08-26T16:26:19.672Z,26.70
2022-08-26T16:28:47.518Z,25.97
2022-08-26T16:31:15.836Z,25.44
2022-08-26T16:33:43.388Z,25.36
2022-08-26T16:36:12.192Z,25.72
2022-08-26T16:38:41.064Z,25.90
2022-08-26T16:41:09.171Z,25.76
2022-08-26T16:43:38.051Z,25.37
2022-08-26T16:46:06.823Z,25.08
2022-08-26T16:48:34.621Z,25.45
2022-08-26T16:51:02.123Z,24.77
2022-08-26T16:53:29.730Z,24.23
2022-08-26T16:55:57.220Z,24.04
2022-08-26T16:58:24.703Z,23.57
2022-08-26T17:00:53.515Z,23.36
2022-08-26T17:03:21.015Z,23.24
2022-08-26T17:05:48.524Z,23.24
2022-08-26T17:08:28.745Z,23.08
2022-08-26T17:10:57.049Z,23.34
2022-08-26T17:13:35.459Z,23.42
2022-08-26T17:16:07.324Z,22.65
2022-08-26T17:18:35.636Z,21.74
2022-08-26T17:21:05.278Z,21.50
2022-08-26T17:23:32.800Z,21.27
2022-08-26T17:26:00.342Z,21.20
2022-08-26T17:28:27.839Z,21.37
2022-08-26T17:30:56.931Z,21.48
2022-08-26T17:33:27.557Z,21.57
2022-08-26T17:35:56.157Z,21.65
2022-08-26T17:38:24.460Z,21.94
2022-08-26T17:40:52.818Z,21.98
2022-08-26T17:43:20.586Z,22.15
2022-08-26T17:45:48.165Z,21.89
2022-08-26T17:48:17.199Z,22.04
2022-08-26T17:50:49.550Z,22.94
2022-08-26T17:53:18.724Z,23.18
2022-08-26T17:55:47.259Z,23.69
2022-08-26T17:58:15.105Z,23.97
2022-08-26T18:00:44.690Z,24.21
2022-08-26T18:03:12.275Z,24.07
2022-08-26T18:05:40.164Z,24.00
2022-08-26T18:08:09.303Z,24.02
2022-08-26T18:10:36.793Z,23.63
2022-08-26T18:13:04.300Z,23.76
2022-08-26T18:15:31.835Z,23.86
2022-08-26T18:17:59.327Z,23.92
2022-08-26T18:20:27.287Z,23.89
2022-08-26T18:22:54.895Z,23.53
2022-08-26T18:25:23.868Z,23.63
2022-08-26T18:27:51.348Z,23.55
2022-08-26T18:30:23.992Z,23.42
2022-08-26T18:32:52.694Z,23.30
2022-08-26T18:35:21.252Z,22.40
2022-08-26T18:37:49.148Z,22.49
2022-08-26T18:40:16.995Z,21.93
2022-08-26T18:42:45.975Z,22.11
2022-08-26T18:45:17.604Z,22.24
2022-08-26T18:47:45.117Z,22.29
2022-08-26T18:50:12.806Z,22.26
2022-08-26T18:52:40.373Z,22.43
2022-08-26T18:55:08.200Z,22.66
2022-08-26T18:57:35.745Z,22.23
2022-08-26T19:00:06.528Z,21.43
2022-08-26T19:02:34.586Z,21.19
2022-08-26T19:05:02.540Z,20.25
2022-08-26T19:07:30.052Z,20.24
2022-08-26T19:09:57.848Z,20.29
2022-08-26T19:12:26.997Z,20.33
2022-08-26T19:14:54.623Z,20.55
2022-08-26T19:17:23.435Z,20.62
2022-08-26T19:19:53.463Z,20.80
2022-08-26T19:22:22.063Z,20.88
2022-08-26T19:24:49.544Z,20.34
2022-08-26T19:27:17.073Z,20.39
2022-08-26T19:29:44.583Z,20.47
2022-08-26T19:32:12.724Z,20.23
2022-08-26T19:34:41.573Z,20.01
2022-08-26T19:37:09.243Z,20.31
2022-08-26T19:39:37.420Z,20.28
2022-08-26T19:42:05.335Z,20.20
2022-08-26T19:44:50.545Z,21.25
2022-08-26T19:47:18.118Z,21.70
2022-08-26T19:49:47.039Z,21.80
2022-08-26T19:52:14.836Z,22.02
2022-08-26T19:54:42.381Z,22.23
2022-08-26T19:57:10.248Z,22.16
2022-08-26T19:59:40.150Z,22.29
2022-08-26T20:02:11.025Z,22.40
2022-08-26T20:04:39.670Z,22.39
2022-08-26T20:07:09.723Z,22.25
2022-08-26T20:09:38.271Z,22.40
2022-08-26T20:12:07.681Z,22.41
2022-08-26T20:14:36.036Z,22.36
2022-08-26T20:17:04.193Z,22.35
2022-08-26T20:19:49.624Z,22.26
2022-08-26T20:22:18.927Z,22.00
2022-08-26T20:24:46.815Z,21.41
2022-08-26T20:27:15.351Z,21.12
2022-08-26T20:29:43.184Z,21.22
2022-08-26T20:32:11.929Z,20.66
2022-08-26T20:34:39.650Z,20.95
2022-08-26T20:37:08.338Z,20.73
2022-08-26T20:39:37.332Z,20.80
2022-08-26T20:42:06.635Z,20.93
2022-08-26T20:44:54.387Z,20.83
2022-08-26T20:47:23.091Z,20.84
2022-08-26T20:49:52.359Z,20.97
2022-08-26T20:52:20.732Z,20.83
2022-08-26T20:54:49.572Z,21.05
2022-08-26T20:57:17.120Z,20.95
2022-08-26T20:59:44.637Z,20.93
2022-08-26T21:02:12.099Z,21.43
2022-08-26T21:04:40.326Z,21.92
2022-08-26T21:07:07.869Z,22.06
2022-08-26T21:09:35.371Z,22.16
2022-08-26T21:12:04.773Z,22.27
2022-08-26T21:14:32.300Z,22.33
2022-08-26T21:16:59.822Z,22.36
2022-08-26T21:19:27.564Z,22.31
2022-08-26T21:21:55.052Z,22.25
2022-08-26T21:24:22.638Z,21.96
2022-08-26T21:26:50.172Z,21.98
2022-08-26T21:29:21.886Z,21.64
2022-08-26T21:31:49.472Z,21.53
2022-08-26T21:34:18.132Z,21.51
2022-08-26T21:36:46.114Z,21.54
2022-08-26T21:39:13.871Z,21.62
2022-08-26T21:41:42.655Z,21.25
2022-08-26T21:44:14.181Z,21.29
2022-08-26T21:46:44.400Z,21.29
2022-08-26T21:49:13.931Z,21.48
2022-08-26T21:51:43.784Z,21.32
2022-08-26T21:54:12.660Z,20.49
2022-08-26T21:56:44.140Z,19.69
2022-08-26T21:59:12.439Z,20.19
2022-08-26T22:01:39.960Z,20.05
2022-08-26T22:04:10.702Z,20.83
2022-08-26T22:06:43.180Z,20.50
2022-08-26T22:09:11.280Z,20.27
2022-08-26T22:11:38.800Z,18.88
2022-08-26T22:14:06.448Z,18.46
2022-08-26T22:16:34.079Z,18.35
2022-08-26T22:19:01.624Z,18.38
2022-08-26T22:21:30.613Z,18.45
2022-08-26T22:23:58.693Z,18.42
2022-08-26T22:26:29.598Z,18.43
2022-08-26T22:28:59.405Z,18.29
2022-08-26T22:31:37.541Z,18.23
2022-08-26T22:34:08.561Z,18.21
2022-08-26T22:36:42.878Z,18.38
2022-08-26T22:39:12.792Z,18.71
2022-08-26T22:41:40.426Z,18.84
2022-08-26T22:44:08.360Z,18.73
2022-08-26T22:46:38.332Z,18.79
2022-08-26T22:49:06.405Z,19.44
2022-08-26T22:51:34.487Z,19.47
2022-08-26T22:54:03.363Z,19.43
2022-08-26T22:56:30.886Z,19.87
2022-08-26T22:58:58.435Z,20.37
2022-08-26T23:01:26.200Z,20.24
2022-08-26T23:03:53.814Z,20.06
2022-08-26T23:06:21.349Z,20.36
2022-08-26T23:08:49.330Z,20.73
2022-08-26T23:11:19.008Z,20.93
2022-08-26T23:13:46.570Z,20.69
2022-08-26T23:16:14.448Z,20.94
2022-08-26T23:18:42.355Z,20.84
2022-08-26T23:21:10.516Z,20.81
2022-08-26T23:23:38.875Z,20.67
2022-08-26T23:26:07.681Z,20.31
2022-08-26T23:28:37.069Z,20.41
2022-08-26T23:31:05.165Z,20.40
2022-08-26T23:33:46.620Z,20.63
2022-08-26T23:36:17.785Z,20.43
2022-08-26T23:38:47.669Z,20.36
2022-08-26T23:41:20.520Z,20.46
2022-08-26T23:43:49.599Z,20.53
2022-08-26T23:46:17.562Z,20.39
2022-08-26T23:48:45.200Z,20.41
2022-08-26T23:51:30.615Z,20.29
2022-08-26T23:53:58.464Z,20.43
2022-08-26T23:56:26.573Z,20.44
2022-08-26T23:58:56.131Z,20.44
